createdAt,value
2019-01-14T00:00:07.350Z,18.1
2019-01-14T00:00:57.601Z,18.1
2019-01-14T00:01:47.383Z,18.1
2019-01-14T00:02:37.988Z,18.1
2019-01-14T00:03:28.071Z,18.1
2019-01-14T00:04:17.899Z,18.2
2019-01-14T00:05:08.101Z,18.2
2019-01-14T00:05:57.533Z,18.2
2019-01-14T00:06:47.836Z,18.3
2019-01-14T00:07:37.931Z,18.2
2019-01-14T00:08:27.638Z,18.2
2019-01-14T00:09:33.323Z,18.3
2019-01-14T00:10:08.025Z,18.3
2019-01-14T00:10:58.837Z,18.3
2019-01-14T00:11:48.630Z,18.3
2019-01-14T00:12:38.421Z,18.4
2019-01-14T00:13:28.440Z,18.4
2019-01-14T00:14:18.772Z,18.4
2019-01-14T00:15:08.865Z,18.4
2019-01-14T00:15:58.692Z,18.4
2019-01-14T00:16:49.306Z,18.4
2019-01-14T00:17:39.027Z,18.4
2019-01-14T00:18:29.364Z,18.5
2019-01-14T00:19:19.110Z,18.4
2019-01-14T00:20:08.481Z,18.4
2019-01-14T00:20:59.227Z,18.4
2019-01-14T00:21:49.287Z,18.4
2019-01-14T00:22:38.510Z,18.4
2019-01-14T00:23:29.740Z,18.4
2019-01-14T00:24:19.492Z,18.4
2019-01-14T00:25:09.725Z,18.4
2019-01-14T00:25:59.321Z,18.4
2019-01-14T00:26:49.369Z,18.3
2019-01-14T00:27:40.022Z,18.3
2019-01-14T00:28:29.462Z,18.2
2019-01-14T00:29:20.074Z,18.1
2019-01-14T00:30:09.331Z,18.1
2019-01-14T00:30:59.649Z,18
2019-01-14T00:31:50.254Z,17.9
2019-01-14T00:32:41.091Z,17.9
2019-01-14T00:33:30.399Z,17.8
2019-01-14T00:34:20.179Z,17.8
2019-01-14T00:35:09.942Z,17.8
2019-01-14T00:36:00.324Z,17.8
2019-01-14T00:36:49.825Z,17.8
2019-01-14T00:37:40.379Z,17.8
2019-01-14T00:38:31.749Z,17.8
2019-01-14T00:39:20.001Z,17.8
2019-01-14T00:40:09.863Z,17.8
2019-01-14T00:40:59.899Z,17.8
2019-01-14T00:41:50.461Z,17.8
2019-01-14T00:42:40.226Z,17.8
2019-01-14T00:43:30.506Z,17.8
2019-01-14T00:44:20.596Z,17.9
2019-01-14T00:45:10.654Z,17.8
2019-01-14T00:46:01.216Z,17.9
2019-01-14T00:46:51.263Z,17.9
2019-01-14T00:47:43.028Z,17.8
2019-01-14T00:48:31.411Z,17.8
2019-01-14T00:49:20.933Z,17.8
2019-01-14T00:50:10.943Z,17.8
2019-01-14T00:51:01.278Z,17.7
2019-01-14T00:51:50.774Z,17.6
2019-01-14T00:52:41.121Z,17.6
2019-01-14T00:53:31.455Z,17.4
2019-01-14T00:54:21.008Z,17.4
2019-01-14T00:55:11.045Z,17.4
2019-01-14T00:56:01.335Z,17.4
2019-01-14T00:56:51.665Z,17.4
2019-01-14T00:57:42.045Z,17.4
2019-01-14T00:58:31.531Z,17.4
2019-01-14T00:59:20.727Z,17.4
2019-01-14T01:00:11.898Z,17.3
2019-01-14T01:01:02.232Z,17.4
2019-01-14T01:01:51.774Z,17.4
2019-01-14T01:02:42.349Z,17.4
2019-01-14T01:03:31.852Z,17.4
2019-01-14T01:04:22.213Z,17.5
2019-01-14T01:05:11.730Z,17.6
2019-01-14T01:06:02.602Z,17.6
2019-01-14T01:06:52.070Z,17.6
2019-01-14T01:07:41.298Z,17.7
2019-01-14T01:08:32.235Z,17.7
2019-01-14T01:09:21.949Z,17.7
2019-01-14T01:10:12.937Z,17.8
2019-01-14T01:11:02.061Z,17.8
2019-01-14T01:11:51.567Z,17.8
2019-01-14T01:12:44.311Z,17.8
2019-01-14T01:13:32.853Z,17.8
2019-01-14T01:14:22.632Z,17.8
2019-01-14T01:15:13.184Z,17.8
2019-01-14T01:16:02.681Z,17.9
2019-01-14T01:16:53.066Z,17.9
2019-01-14T01:17:43.371Z,17.9
2019-01-14T01:18:33.124Z,17.9
2019-01-14T01:19:23.215Z,17.9
2019-01-14T01:20:12.424Z,17.9
2019-01-14T01:21:02.186Z,17.9
2019-01-14T01:21:53.058Z,17.9
2019-01-14T01:22:43.134Z,18
2019-01-14T01:23:32.908Z,18
2019-01-14T01:24:23.239Z,18
2019-01-14T01:25:13.846Z,18.1
2019-01-14T01:26:03.121Z,18.1
2019-01-14T01:26:53.726Z,18.1
2019-01-14T01:27:43.518Z,18.1
2019-01-14T01:28:34.070Z,18.2
2019-01-14T01:29:23.561Z,18.1
2019-01-14T01:30:13.191Z,18.1
2019-01-14T01:31:03.753Z,18.1
2019-01-14T01:31:53.548Z,18.1
2019-01-14T01:32:43.629Z,18
2019-01-14T01:33:33.935Z,17.9
2019-01-14T01:34:23.983Z,17.9
2019-01-14T01:35:14.565Z,17.8
2019-01-14T01:36:04.047Z,17.8
2019-01-14T01:36:54.690Z,17.7
2019-01-14T01:37:44.440Z,17.6
2019-01-14T01:38:34.560Z,17.6
2019-01-14T01:39:24.265Z,17.6
2019-01-14T01:40:13.757Z,17.5
2019-01-14T01:41:05.903Z,17.4
2019-01-14T01:41:54.488Z,17.5
2019-01-14T01:42:44.480Z,17.4
2019-01-14T01:43:34.835Z,17.4
2019-01-14T01:44:25.144Z,17.4
2019-01-14T01:45:16.622Z,17.4
2019-01-14T01:46:05.077Z,17.4
2019-01-14T01:46:54.784Z,17.5
2019-01-14T01:47:44.359Z,17.5
2019-01-14T01:48:34.872Z,17.6
2019-01-14T01:49:25.222Z,17.6
2019-01-14T01:50:14.769Z,17.6
2019-01-14T01:51:05.353Z,17.6
2019-01-14T01:51:55.428Z,17.6
2019-01-14T01:52:45.542Z,17.6
2019-01-14T01:53:35.516Z,17.6
2019-01-14T01:54:25.307Z,17.6
2019-01-14T01:55:15.379Z,17.6
2019-01-14T03:08:54.164Z,17.4
2019-01-14T03:09:43.746Z,17.4
2019-01-14T03:10:33.507Z,17.4
2019-01-14T03:11:23.567Z,17.5
2019-01-14T03:12:13.499Z,17.5
2019-01-14T03:13:03.775Z,17.5
2019-01-14T03:13:53.810Z,17.5
2019-01-14T03:14:44.429Z,17.5
2019-01-14T03:15:33.544Z,17.5
2019-01-14T03:16:24.189Z,17.5
2019-01-14T03:17:14.589Z,17.5
2019-01-14T03:18:04.013Z,17.6
2019-01-14T03:18:54.440Z,17.6
2019-01-14T03:19:43.684Z,17.6
2019-01-14T03:20:34.209Z,17.6
2019-01-14T03:21:24.508Z,17.6
2019-01-14T03:22:14.912Z,17.6
2019-01-14T03:23:04.362Z,17.6
2019-01-14T03:23:54.566Z,17.7
2019-01-14T03:24:44.512Z,17.7
2019-01-14T03:25:34.621Z,17.8
2019-01-14T03:26:24.674Z,17.8
2019-01-14T03:27:14.928Z,17.8
2019-01-14T03:28:04.961Z,17.8
2019-01-14T03:28:54.538Z,17.8
2019-01-14T03:29:45.113Z,17.7
2019-01-14T03:30:35.345Z,17.6
2019-01-14T03:31:25.103Z,17.6
2019-01-14T03:32:15.734Z,17.4
2019-01-14T03:33:05.105Z,17.4
2019-01-14T03:33:55.697Z,17.3
2019-01-14T03:34:44.905Z,17.2
2019-01-14T03:35:35.202Z,17.2
2019-01-14T03:36:25.228Z,17.1
2019-01-14T03:37:15.698Z,17.1
2019-01-14T03:38:55.394Z,16.9
2019-01-14T03:39:45.565Z,16.9
2019-01-14T03:40:35.537Z,16.9
2019-01-14T03:41:25.897Z,16.9
2019-01-14T03:42:16.305Z,16.9
2019-01-14T03:43:05.727Z,16.9
2019-01-14T03:48:06.384Z,17.1
2019-01-14T03:48:56.457Z,17.1
2019-01-14T03:49:45.895Z,17.1
2019-01-14T03:50:35.491Z,17.2
2019-01-14T03:51:26.272Z,17.1
2019-01-14T03:52:16.641Z,17.2
2019-01-14T03:53:06.492Z,17.3
2019-01-14T03:53:56.484Z,17.3
2019-01-14T03:54:46.749Z,17.4
2019-01-14T03:55:36.612Z,17.4
2019-01-14T03:56:27.152Z,17.5
2019-01-14T03:57:16.979Z,17.5
2019-01-14T03:58:06.553Z,17.4
2019-01-14T03:58:56.774Z,17.4
2019-01-14T03:59:46.677Z,17.4
2019-01-14T04:00:37.169Z,17.6
2019-01-14T04:01:26.646Z,17.6
2019-01-14T04:02:17.588Z,17.6
2019-01-14T04:03:06.996Z,17.6
2019-01-14T04:03:57.701Z,17.7
2019-01-14T04:04:47.511Z,17.7
2019-01-14T04:05:37.531Z,17.7
2019-01-14T04:06:27.566Z,17.7
2019-01-14T04:07:23.693Z,17.7
2019-01-14T04:08:07.646Z,17.7
2019-01-14T04:08:57.464Z,17.6
2019-01-14T04:09:47.513Z,17.7
2019-01-14T04:10:37.595Z,17.8
2019-01-14T04:11:27.357Z,17.8
2019-01-14T04:12:17.702Z,17.8
2019-01-14T04:13:07.743Z,17.7
2019-01-14T04:13:57.845Z,17.8
2019-01-14T04:14:47.290Z,17.8
2019-01-14T04:15:38.187Z,17.8
2019-01-14T04:16:27.664Z,17.8
2019-01-14T04:17:18.092Z,17.9
2019-01-14T04:18:08.358Z,17.8
2019-01-14T04:18:57.591Z,17.8
2019-01-14T04:19:47.642Z,17.8
2019-01-14T04:20:37.980Z,17.7
2019-01-14T04:21:28.362Z,17.7
2019-01-14T04:22:18.058Z,17.7
2019-01-14T04:23:10.155Z,17.6
2019-01-14T04:23:58.262Z,17.6
2019-01-14T04:24:49.078Z,17.5
2019-01-14T04:25:39.107Z,17.4
2019-01-14T04:26:28.365Z,17.3
2019-01-14T04:27:19.098Z,17.3
2019-01-14T04:28:08.522Z,17.2
2019-01-14T04:28:58.595Z,17.2
2019-01-14T04:29:49.144Z,17.1
2019-01-14T04:30:38.751Z,17.1
2019-01-14T04:35:38.689Z,17.1
2019-01-14T04:36:28.874Z,17.1
2019-01-14T04:37:27.440Z,17.1
2019-01-14T04:38:09.474Z,17.1
2019-01-14T04:38:59.471Z,17.1
2019-01-14T04:39:50.122Z,17.2
2019-01-14T04:40:39.946Z,17.2
2019-01-14T04:41:29.971Z,17.3
2019-01-14T04:42:20.084Z,17.3
2019-01-14T04:43:09.941Z,17.3
2019-01-14T04:43:59.813Z,17.3
2019-01-14T04:44:50.123Z,17.3
2019-01-14T04:45:40.255Z,17.4
2019-01-14T04:46:29.428Z,17.4
2019-01-14T04:47:19.469Z,17.4
2019-01-14T04:48:10.183Z,17.4
2019-01-14T04:49:00.781Z,17.4
2019-01-14T04:49:50.518Z,17.3
2019-01-14T04:50:40.106Z,17.3
2019-01-14T04:51:30.306Z,17.2
2019-01-14T04:52:20.400Z,17.1
2019-01-14T04:54:00.827Z,16.9
2019-01-14T04:54:51.093Z,16.8
2019-01-14T04:55:40.332Z,16.7
2019-01-14T04:56:30.987Z,16.6
2019-01-14T04:57:20.195Z,16.6
2019-01-14T04:58:10.878Z,16.5
2019-01-14T04:59:01.405Z,16.5
2019-01-14T04:59:50.685Z,16.6
2019-01-14T05:00:40.957Z,16.6
2019-01-14T05:01:31.573Z,16.6
2019-01-14T05:02:21.486Z,16.6
2019-01-14T05:03:11.165Z,16.6
2019-01-14T05:04:01.467Z,16.6
2019-01-14T05:04:51.222Z,16.6
2019-01-14T05:05:41.292Z,16.7
2019-01-14T05:06:30.358Z,16.8
2019-01-14T05:07:21.380Z,16.8
2019-01-14T05:08:11.507Z,16.8
2019-01-14T05:09:01.230Z,16.9
2019-01-14T05:09:51.031Z,16.9
2019-01-14T05:10:41.714Z,16.9
2019-01-14T05:11:32.002Z,16.9
2019-01-14T05:12:21.526Z,16.9
2019-01-14T05:13:11.807Z,16.9
2019-01-14T05:14:02.142Z,16.4
2019-01-14T05:14:51.123Z,15.8
2019-01-14T05:15:43.981Z,15.4
2019-01-14T05:16:32.287Z,15.1
2019-01-14T05:17:21.532Z,15
2019-01-14T05:18:12.414Z,14.9
2019-01-14T05:19:01.919Z,14.8
2019-01-14T05:19:52.788Z,14.8
2019-01-14T05:20:41.994Z,14.8
2019-01-14T05:21:32.456Z,14.8
2019-01-14T05:22:22.481Z,14.8
2019-01-14T05:23:11.524Z,14.8
2019-01-14T05:24:02.320Z,14.8
2019-01-14T05:24:51.643Z,14.8
2019-01-14T05:25:41.409Z,14.8
2019-01-14T05:26:32.257Z,14.8
2019-01-14T05:27:22.823Z,14.9
2019-01-14T05:28:12.155Z,14.9
2019-01-14T05:29:01.844Z,14.9
2019-01-14T05:29:52.401Z,14.9
2019-01-14T05:30:42.180Z,14.8
2019-01-14T05:31:32.254Z,14.6
2019-01-14T05:32:23.384Z,14.5
2019-01-14T05:33:12.202Z,14.3
2019-01-14T05:34:03.184Z,14.1
2019-01-14T05:34:52.847Z,13.9
2019-01-14T05:35:43.314Z,13.8
2019-01-14T05:36:33.736Z,13.7
2019-01-14T05:37:23.684Z,13.7
2019-01-14T05:38:13.739Z,13.8
2019-01-14T05:39:03.791Z,13.9
2019-01-14T05:39:54.096Z,14.2
2019-01-14T05:40:44.001Z,14.6
2019-01-14T05:41:33.403Z,15.1
2019-01-14T05:42:23.551Z,15.6
2019-01-14T05:43:14.042Z,16.1
2019-01-14T05:44:03.355Z,16.8
2019-01-14T05:44:54.206Z,17.4
2019-01-14T05:45:43.992Z,17.9
2019-01-14T05:46:34.554Z,18.6
2019-01-14T05:47:23.570Z,19.3
2019-01-14T05:48:14.775Z,19.9
2019-01-14T05:49:04.726Z,20.7
2019-01-14T05:49:54.226Z,24.9
2019-01-14T05:50:44.381Z,31.2
2019-01-14T05:51:34.601Z,35.5
2019-01-14T05:52:24.696Z,38.8
2019-01-14T05:53:14.728Z,41.2
2019-01-14T05:54:05.064Z,42.9
2019-01-14T05:54:54.850Z,43.8
2019-01-14T05:55:45.196Z,43.6
2019-01-14T05:56:34.112Z,42.6
2019-01-14T05:57:24.770Z,41.3
2019-01-14T05:58:14.816Z,40.1
2019-01-14T05:59:04.830Z,39.1
2019-01-14T05:59:54.955Z,38.3
2019-01-14T06:00:45.017Z,37.4
2019-01-14T06:01:35.040Z,36.7
2019-01-14T06:02:25.337Z,36.1
2019-01-14T06:03:15.758Z,35.6
2019-01-14T06:04:05.783Z,35.3
2019-01-14T06:06:53.749Z,35.8
2019-01-14T06:07:51.144Z,36.2
2019-01-14T06:08:32.877Z,36.7
2019-01-14T06:09:23.224Z,37.1
2019-01-14T06:10:14.074Z,37.7
2019-01-14T06:11:04.051Z,40.3
2019-01-14T06:11:54.134Z,42.1
2019-01-14T06:12:43.999Z,43.4
2019-01-14T06:13:34.304Z,44.4
2019-01-14T06:14:24.290Z,44.9
2019-01-14T06:15:14.501Z,45.1
2019-01-14T06:16:03.728Z,44.7
2019-01-14T06:16:53.756Z,43.7
2019-01-14T06:17:43.734Z,42.4
2019-01-14T06:18:34.131Z,41.3
2019-01-14T06:19:24.138Z,40.3
2019-01-14T06:20:13.344Z,39.4
2019-01-14T06:21:03.708Z,38.6
2019-01-14T06:21:54.151Z,37.8
2019-01-14T06:22:43.841Z,37.1
2019-01-14T06:23:34.408Z,36.5
2019-01-14T06:24:23.644Z,36.1
2019-01-14T06:25:14.024Z,36.1
2019-01-14T06:26:04.653Z,36.1
2019-01-14T06:26:54.071Z,36.4
2019-01-14T06:27:44.463Z,36.7
2019-01-14T06:28:33.666Z,37.1
2019-01-14T06:29:24.568Z,37.4
2019-01-14T06:30:14.574Z,37.9
2019-01-14T06:31:03.867Z,40.2
2019-01-14T06:31:54.220Z,41.8
2019-01-14T06:32:44.308Z,42.9
2019-01-14T06:33:34.611Z,43.8
2019-01-14T06:34:24.509Z,44.2
2019-01-14T06:35:14.721Z,44.3
2019-01-14T06:36:06.566Z,43.9
2019-01-14T06:36:54.310Z,42.9
2019-01-14T06:37:44.578Z,41.9
2019-01-14T06:38:34.490Z,40.9
2019-01-14T06:39:25.182Z,40.3
2019-01-14T06:40:15.477Z,39.6
2019-01-14T06:41:05.590Z,38.8
2019-01-14T06:41:55.807Z,38.1
2019-01-14T06:42:45.757Z,37.6
2019-01-14T06:43:35.922Z,37.2
2019-01-14T06:44:26.487Z,37
2019-01-14T06:45:15.860Z,37.1
2019-01-14T06:46:06.406Z,37.3
2019-01-14T06:46:55.682Z,37.5
2019-01-14T06:47:46.307Z,37.8
2019-01-14T06:48:37.514Z,38.1
2019-01-14T06:49:25.400Z,38.4
2019-01-14T06:50:15.929Z,38.8
2019-01-14T06:51:06.264Z,40.3
2019-01-14T06:51:56.072Z,41.6
2019-01-14T06:52:46.099Z,42.4
2019-01-14T06:53:36.431Z,42.9
2019-01-14T06:54:25.726Z,43.1
2019-01-14T06:55:15.832Z,43.2
2019-01-14T06:56:06.604Z,42.9
2019-01-14T06:56:56.661Z,42.6
2019-01-14T06:57:46.770Z,42.1
2019-01-14T06:58:36.480Z,41.6
2019-01-14T06:59:26.559Z,41.1
2019-01-14T07:00:16.147Z,40.6
2019-01-14T07:01:06.984Z,41.6
2019-01-14T07:01:56.983Z,42.2
2019-01-14T07:02:46.245Z,42.2
2019-01-14T07:03:36.344Z,41.8
2019-01-14T07:04:26.631Z,41.1
2019-01-14T07:06:53.289Z,39
2019-01-14T07:07:42.819Z,38.3
2019-01-14T07:08:32.880Z,37.9
2019-01-14T07:09:23.434Z,37.6
2019-01-14T07:10:13.217Z,37.4
2019-01-14T07:11:02.979Z,37.4
2019-01-14T07:11:53.152Z,37.5
2019-01-14T07:12:43.644Z,37.6
2019-01-14T07:13:33.447Z,37.8
2019-01-14T07:14:23.474Z,37.9
2019-01-14T07:15:13.544Z,38.1
2019-01-14T07:16:03.857Z,38.2
2019-01-14T07:16:53.711Z,38.3
2019-01-14T07:17:43.191Z,38.4
2019-01-14T07:18:33.801Z,38.4
2019-01-14T07:19:23.611Z,38.5
2019-01-14T07:20:14.146Z,38.6
2019-01-14T07:21:03.736Z,38.6
2019-01-14T07:21:53.706Z,38.6
2019-01-14T07:22:44.091Z,38.7
2019-01-14T07:23:34.046Z,38.8
2019-01-14T07:24:24.383Z,38.8
2019-01-14T07:25:14.966Z,38.8
2019-01-14T07:26:04.760Z,38.8
2019-01-14T07:26:55.076Z,38.8
2019-01-14T07:27:44.402Z,38.8
2019-01-14T07:28:35.233Z,38.8
2019-01-14T07:29:24.807Z,38.8
2019-01-14T07:30:14.270Z,38.8
2019-01-14T07:31:04.551Z,38.8
2019-01-14T07:31:54.663Z,38.8
2019-01-14T07:32:44.973Z,38.8
2019-01-14T07:33:35.243Z,38.8
2019-01-14T07:34:25.377Z,38.8
2019-01-14T07:35:15.170Z,38.7
2019-01-14T07:36:05.707Z,38.7
2019-01-14T07:36:55.197Z,38.7
2019-01-14T07:37:44.942Z,38.7
2019-01-14T07:38:35.905Z,38.6
2019-01-14T07:39:24.798Z,38.6
2019-01-14T07:40:15.987Z,38.5
2019-01-14T07:41:05.467Z,38.6
2019-01-14T07:41:56.075Z,38.5
2019-01-14T07:42:45.852Z,38.4
2019-01-14T07:43:35.913Z,38.4
2019-01-14T07:44:26.300Z,38.4
2019-01-14T07:45:15.777Z,38.4
2019-01-14T07:46:05.875Z,38.3
2019-01-14T07:46:56.192Z,38.3
2019-01-14T07:47:45.442Z,38.3
2019-01-14T07:48:35.959Z,38.2
2019-01-14T07:49:26.561Z,38.2
2019-01-14T07:50:16.659Z,38.1
2019-01-14T07:51:05.589Z,38.1
2019-01-14T07:51:56.520Z,38.1
2019-01-14T07:52:46.278Z,38.1
2019-01-14T07:53:36.306Z,38
2019-01-14T07:54:26.964Z,38
2019-01-14T07:55:17.092Z,37.9
2019-01-14T07:56:05.700Z,37.9
2019-01-14T07:56:56.533Z,37.8
2019-01-14T07:57:46.891Z,37.8
2019-01-14T07:58:37.239Z,37.8
2019-01-14T07:59:27.288Z,37.7
2019-01-14T08:00:17.084Z,37.6
2019-01-14T08:01:06.896Z,37.6
2019-01-14T08:01:56.879Z,37.6
2019-01-14T08:02:47.499Z,37.6
2019-01-14T08:03:37.573Z,37.5
2019-01-14T08:04:26.761Z,37.4
2019-01-14T08:05:17.146Z,37.4
2019-01-14T08:06:07.754Z,37.4
2019-01-14T08:06:57.768Z,37.4
2019-01-14T08:07:47.592Z,37.3
2019-01-14T08:08:37.856Z,37.3
2019-01-14T08:09:28.000Z,37.3
2019-01-14T08:10:17.775Z,37.2
2019-01-14T08:11:07.244Z,37.2
2019-01-14T08:11:58.110Z,37.1
2019-01-14T08:12:48.248Z,37.1
2019-01-14T08:13:37.620Z,37.1
2019-01-14T08:14:28.035Z,37.1
2019-01-14T08:15:17.536Z,37.1
2019-01-14T08:16:08.150Z,37
2019-01-14T08:16:58.500Z,36.9
2019-01-14T08:17:48.207Z,36.8
2019-01-14T08:18:38.567Z,36.8
2019-01-14T08:19:29.478Z,36.8
2019-01-14T08:20:18.152Z,36.7
2019-01-14T08:21:08.702Z,36.6
2019-01-14T08:21:58.474Z,36.6
2019-01-14T08:22:48.848Z,36.6
2019-01-14T08:23:38.850Z,36.5
2019-01-14T08:24:28.979Z,36.5
2019-01-14T08:25:18.707Z,36.4
2019-01-14T08:26:08.809Z,36.4
2019-01-14T08:26:59.072Z,36.4
2019-01-14T08:27:48.130Z,36.3
2019-01-14T08:28:38.662Z,36.3
2019-01-14T08:29:28.984Z,36.3
2019-01-14T08:30:19.437Z,36.2
2019-01-14T08:31:09.719Z,36.1
2019-01-14T08:31:59.427Z,36.1
2019-01-14T08:32:49.014Z,36
2019-01-14T08:33:39.579Z,36
2019-01-14T08:34:29.594Z,35.9
2019-01-14T08:35:19.668Z,35.9
2019-01-14T08:36:09.259Z,35.9
2019-01-14T08:37:06.680Z,35.8
2019-01-14T08:37:49.861Z,35.8
2019-01-14T08:38:39.864Z,35.8
2019-01-14T08:39:29.733Z,35.8
2019-01-14T08:40:18.899Z,35.7
2019-01-14T08:41:09.483Z,35.6
2019-01-14T08:41:59.841Z,35.6
2019-01-14T08:42:49.891Z,35.5
2019-01-14T08:43:40.253Z,35.5
2019-01-14T08:44:30.269Z,35.4
2019-01-14T08:45:20.081Z,35.4
2019-01-14T08:46:10.133Z,35.4
2019-01-14T08:47:00.215Z,35.3
2019-01-14T08:47:50.530Z,35.3
2019-01-14T08:49:53.218Z,35.2
2019-01-14T08:50:04.353Z,35.1
2019-01-14T08:50:54.661Z,35.1
2019-01-14T08:51:44.495Z,35.1
2019-01-14T08:52:33.620Z,35
2019-01-14T08:53:25.110Z,35
2019-01-14T08:54:14.430Z,35
2019-01-14T08:55:04.838Z,35
2019-01-14T08:55:54.522Z,34.9
2019-01-14T08:56:44.030Z,35
2019-01-14T08:57:34.953Z,35.1
2019-01-14T08:58:24.697Z,35.1
2019-01-14T08:59:14.817Z,35.2
2019-01-14T09:00:05.322Z,35.3
2019-01-14T09:00:54.869Z,35.5
2019-01-14T09:01:45.027Z,35.8
2019-01-14T09:02:35.182Z,36.1
2019-01-14T09:03:24.727Z,36.4
2019-01-14T09:04:14.782Z,36.8
2019-01-14T09:05:05.171Z,37.9
2019-01-14T09:05:55.507Z,40.6
2019-01-14T09:06:44.962Z,42.6
2019-01-14T09:07:34.807Z,43.9
2019-01-14T09:08:32.217Z,44.9
2019-01-14T09:09:15.394Z,45.4
2019-01-14T09:10:05.877Z,45.1
2019-01-14T09:10:55.253Z,44.1
2019-01-14T09:11:45.304Z,42.6
2019-01-14T09:12:35.383Z,41.2
2019-01-14T09:13:25.136Z,40.1
2019-01-14T09:14:16.017Z,39.1
2019-01-14T09:15:05.829Z,38.3
2019-01-14T09:15:56.368Z,37.6
2019-01-14T09:16:45.670Z,36.9
2019-01-14T09:17:35.419Z,36.4
2019-01-14T09:18:25.456Z,36.1
2019-01-14T09:19:15.809Z,36.1
2019-01-14T09:20:06.864Z,36.4
2019-01-14T09:20:55.961Z,36.6
2019-01-14T09:21:46.644Z,37
2019-01-14T09:22:35.756Z,37.4
2019-01-14T09:23:26.836Z,38.5
2019-01-14T09:24:16.516Z,40.8
2019-01-14T09:25:07.310Z,42.3
2019-01-14T09:26:03.483Z,43.3
2019-01-14T09:26:48.928Z,44.1
2019-01-14T09:27:36.661Z,44.3
2019-01-14T09:28:25.566Z,44.1
2019-01-14T09:29:17.020Z,43.4
2019-01-14T09:30:06.379Z,42.2
2019-01-14T09:30:56.608Z,41.2
2019-01-14T09:31:47.470Z,40.3
2019-01-14T09:32:36.686Z,39.5
2019-01-14T09:33:27.335Z,38.8
2019-01-14T09:34:17.298Z,38.1
2019-01-14T09:35:07.715Z,37.4
2019-01-14T09:35:57.730Z,36.9
2019-01-14T09:36:47.515Z,36.7
2019-01-14T09:37:37.592Z,36.7
2019-01-14T09:38:27.402Z,36.9
2019-01-14T09:39:17.515Z,37.2
2019-01-14T09:40:08.080Z,37.5
2019-01-14T09:40:58.422Z,37.9
2019-01-14T09:41:47.528Z,39.1
2019-01-14T09:42:38.132Z,41
2019-01-14T09:43:28.475Z,42.3
2019-01-14T09:44:18.293Z,43.1
2019-01-14T09:45:08.579Z,43.5
2019-01-14T09:45:57.880Z,43.6
2019-01-14T09:46:48.407Z,43.4
2019-01-14T09:47:38.752Z,42.6
2019-01-14T09:48:28.539Z,41.8
2019-01-14T09:49:18.630Z,41.1
2019-01-14T09:50:08.687Z,40.4
2019-01-14T09:50:58.692Z,39.8
2019-01-14T09:51:49.049Z,39.1
2019-01-14T09:52:38.939Z,38.6
2019-01-14T09:53:29.169Z,38.1
2019-01-14T09:54:18.442Z,37.9
2019-01-14T09:55:14.424Z,37.9
2019-01-14T09:55:59.031Z,38.1
2019-01-14T09:56:49.362Z,38.3
2019-01-14T09:57:40.677Z,38.5
2019-01-14T09:58:28.942Z,38.8
2019-01-14T09:59:19.529Z,39.6
2019-01-14T10:00:09.711Z,41.1
2019-01-14T10:00:59.736Z,41.8
2019-01-14T10:01:49.458Z,42.2
2019-01-14T10:02:38.376Z,42.3
2019-01-14T10:03:28.799Z,42.3
2019-01-14T10:04:18.248Z,41.9
2019-01-14T10:05:09.766Z,41.6
2019-01-14T10:07:53.573Z,40.3
2019-01-14T10:08:50.466Z,41.2
2019-01-14T10:09:32.863Z,42.3
2019-01-14T10:10:23.598Z,42.5
2019-01-14T10:11:12.683Z,42.3
2019-01-14T10:12:03.565Z,41.9
2019-01-14T10:12:53.635Z,41.4
2019-01-14T10:13:43.973Z,40.9
2019-01-14T10:14:33.768Z,40.4
2019-01-14T10:15:23.898Z,39.9
2019-01-14T10:16:14.118Z,39.3
2019-01-14T10:17:03.603Z,38.9
2019-01-14T10:17:54.002Z,38.7
2019-01-14T10:18:44.345Z,38.6
2019-01-14T10:19:34.388Z,38.6
2019-01-14T10:20:24.160Z,38.8
2019-01-14T10:21:13.924Z,38.9
2019-01-14T10:22:04.516Z,39.1
2019-01-14T10:22:54.355Z,40.5
2019-01-14T10:23:44.627Z,41.6
2019-01-14T10:24:34.472Z,42.1
2019-01-14T10:25:24.727Z,42.2
2019-01-14T10:26:16.195Z,42.1
2019-01-14T10:27:04.024Z,41.9
2019-01-14T10:27:54.157Z,41.5
2019-01-14T10:28:44.732Z,41.1
2019-01-14T10:29:35.067Z,40.6
2019-01-14T10:30:24.309Z,40.1
2019-01-14T10:31:19.748Z,39.8
2019-01-14T10:32:04.904Z,39.6
2019-01-14T10:32:54.751Z,40.5
2019-01-14T10:33:44.779Z,41.6
2019-01-14T10:34:34.360Z,42
2019-01-14T10:35:24.107Z,41.9
2019-01-14T10:36:15.178Z,41.6
2019-01-14T10:37:04.950Z,41.3
2019-01-14T10:37:55.112Z,40.8
2019-01-14T10:38:51.683Z,40.3
2019-01-14T10:39:35.225Z,39.8
2019-01-14T10:40:25.655Z,39.4
2019-01-14T10:41:15.022Z,39.1
2019-01-14T10:42:10.087Z,38.9
2019-01-14T10:42:55.617Z,38.9
2019-01-14T10:43:45.760Z,39
2019-01-14T10:44:35.765Z,39.2
2019-01-14T10:45:25.337Z,40.3
2019-01-14T10:46:15.567Z,41.5
2019-01-14T10:47:05.695Z,42.1
2019-01-14T10:47:56.015Z,42.2
2019-01-14T10:48:46.170Z,42.1
2019-01-14T10:49:35.817Z,41.8
2019-01-14T10:50:25.936Z,41.4
2019-01-14T10:51:15.090Z,41
2019-01-14T10:52:05.694Z,40.6
2019-01-14T10:52:55.932Z,40.1
2019-01-14T10:53:46.344Z,39.7
2019-01-14T10:54:36.681Z,39.4
2019-01-14T10:55:26.501Z,39.4
2019-01-14T10:56:15.494Z,40.1
2019-01-14T10:57:06.169Z,41.4
2019-01-14T10:57:56.125Z,41.9
2019-01-14T10:58:45.681Z,42.1
2019-01-14T10:59:35.784Z,41.9
2019-01-14T11:00:26.608Z,41.5
2019-01-14T11:01:16.706Z,41.1
2019-01-14T11:02:06.433Z,40.7
2019-01-14T11:02:58.123Z,40.1
2019-01-14T11:03:46.824Z,39.7
2019-01-14T11:04:36.881Z,39.4
2019-01-14T11:05:26.691Z,39.1
2019-01-14T11:06:17.011Z,39.1
2019-01-14T11:07:06.026Z,39.2
2019-01-14T11:07:56.652Z,39.3
2019-01-14T11:08:47.374Z,40.8
2019-01-14T11:09:37.735Z,41.8
2019-01-14T11:10:27.770Z,42.2
2019-01-14T11:11:16.781Z,42.3
2019-01-14T11:12:06.836Z,42.3
2019-01-14T11:12:57.224Z,41.9
2019-01-14T11:13:46.595Z,41.6
2019-01-14T11:14:39.747Z,41.1
2019-01-14T11:15:27.854Z,40.6
2019-01-14T11:16:17.035Z,40.3
2019-01-14T11:17:07.715Z,39.9
2019-01-14T11:17:57.310Z,39.8
2019-01-14T11:18:47.756Z,41.1
2019-01-14T11:19:38.089Z,41.9
2019-01-14T11:20:27.987Z,42.2
2019-01-14T11:21:22.672Z,42
2019-01-14T11:22:07.987Z,41.7
2019-01-14T11:22:58.063Z,41.3
2019-01-14T11:23:48.372Z,40.9
2019-01-14T11:24:38.147Z,40.4
2019-01-14T11:25:28.512Z,39.9
2019-01-14T11:26:18.542Z,39.5
2019-01-14T11:27:08.865Z,39.3
2019-01-14T11:27:58.690Z,39.1
2019-01-14T11:28:48.739Z,39.1
2019-01-14T11:29:38.742Z,39.3
2019-01-14T11:30:28.872Z,39.4
2019-01-14T11:31:18.887Z,40.6
2019-01-14T11:32:08.972Z,41.7
2019-01-14T11:32:59.297Z,42.1
2019-01-14T11:33:49.182Z,42.1
2019-01-14T11:34:39.379Z,41.9
2019-01-14T11:35:29.513Z,41.6
2019-01-14T11:36:19.364Z,41.2
2019-01-14T11:37:09.314Z,40.8
2019-01-14T11:37:59.624Z,40.3
2019-01-14T11:38:49.669Z,39.8
2019-01-14T11:39:39.442Z,39.5
2019-01-14T11:40:29.589Z,39.3
2019-01-14T11:41:19.909Z,39.3
2019-01-14T11:42:09.697Z,39.3
2019-01-14T11:42:59.404Z,40.1
2019-01-14T11:43:50.021Z,41.6
2019-01-14T11:44:40.068Z,42.2
2019-01-14T11:45:29.564Z,42.4
2019-01-14T11:46:19.617Z,42.3
2019-01-14T11:47:09.816Z,42
2019-01-14T11:47:59.441Z,41.6
2019-01-14T11:48:49.499Z,41.2
2019-01-14T11:49:40.403Z,40.7
2019-01-14T11:50:29.936Z,40.2
2019-01-14T11:51:20.525Z,39.8
2019-01-14T11:52:10.311Z,39.4
2019-01-14T11:53:00.661Z,39.3
2019-01-14T11:53:49.823Z,39.3
2019-01-14T11:54:39.668Z,40.1
2019-01-14T11:55:29.979Z,41.4
2019-01-14T11:56:19.720Z,41.9
2019-01-14T11:57:12.333Z,41.9
2019-01-14T11:58:00.968Z,41.7
2019-01-14T11:58:50.757Z,41.4
2019-01-14T11:59:40.341Z,40.9
2019-01-14T12:00:38.588Z,40.6
2019-01-14T12:01:20.959Z,40
2019-01-14T12:02:10.676Z,39.6
2019-01-14T12:03:01.566Z,39.4
2019-01-14T12:03:50.818Z,39.2
2019-01-14T12:04:40.853Z,39.2
2019-01-14T12:05:31.517Z,39.3
2019-01-14T12:07:53.802Z,41.7
2019-01-14T12:08:58.673Z,42.4
2019-01-14T12:09:33.036Z,42.4
2019-01-14T12:10:23.128Z,42.3
2019-01-14T12:11:17.550Z,42
2019-01-14T12:12:02.387Z,41.6
2019-01-14T12:12:52.448Z,41.1
2019-01-14T12:13:43.262Z,40.6
2019-01-14T12:14:32.782Z,40.1
2019-01-14T12:15:22.547Z,39.8
2019-01-14T12:16:12.617Z,39.5
2019-01-14T12:17:03.454Z,39.4
2019-01-14T12:17:52.949Z,39.5
2019-01-14T12:18:43.834Z,41.1
2019-01-14T12:19:33.679Z,41.8
2019-01-14T12:20:23.417Z,42.1
2019-01-14T12:21:13.516Z,41.9
2019-01-14T12:22:03.275Z,41.6
2019-01-14T12:22:53.956Z,41.3
2019-01-14T12:23:43.354Z,40.8
2019-01-14T12:24:34.254Z,40.3
2019-01-14T12:25:25.521Z,39.9
2019-01-14T12:26:14.077Z,39.4
2019-01-14T12:27:03.645Z,39.2
2019-01-14T12:27:53.931Z,39.1
2019-01-14T12:28:43.674Z,39.1
2019-01-14T12:29:34.022Z,39.2
2019-01-14T12:30:24.403Z,40.1
2019-01-14T12:31:14.691Z,41.4
2019-01-14T12:32:03.911Z,42.1
2019-01-14T12:32:53.976Z,42.3
2019-01-14T12:33:43.181Z,42.3
2019-01-14T12:34:34.135Z,42.1
2019-01-14T12:35:23.666Z,41.7
2019-01-14T12:36:13.100Z,41.3
2019-01-14T12:37:04.593Z,40.8
2019-01-14T12:37:54.673Z,40.3